Time;durP1;ratioP1;P1;durP2;ratioP2;P2;SDS_P1;SDS_P2;PMS_P1;PMS_P2;Temp;Humidity;BMP_temperature;BMP_pressure;BME280_temperature;BME280_humidity;BME280_pressure;Samples;Min_cycle;Max_cycle;Signal;HPM_P1;HPM_P2
2022/06/16 00:00:37;;;;;;;4.90;2.80;;;;;;;;;;5026167;28;20041;-73
2022/06/16 00:03:03;;;;;;;4.90;2.90;;;;;;;;;;5023531;28;20034;-74
2022/06/16 00:05:31;;;;;;;6.40;3.10;;;;;;;;;;5025331;28;20030;-74
2022/06/16 00:08:03;;;;;;;5.55;2.63;;;;;;;;;;5025819;28;20022;-75
2022/06/16 00:11:15;;;;;;;5.47;2.78;;;;;;;;;;5013365;28;20034;-74
2022/06/16 00:13:25;;;;;;;7.50;3.00;;;;;;;;;;5014871;28;20026;-74
2022/06/16 00:15:51;;;;;;;3.90;2.63;;;;;;;;;;5005861;28;20038;-74
2022/06/16 00:18:20;;;;;;;5.82;3.10;;;;;;;;;;5023814;28;20089;-74
2022/06/16 00:20:46;;;;;;;5.85;2.60;;;;;;;;;;5024251;28;20018;-74
2022/06/16 00:23:12;;;;;;;4.78;2.70;;;;;;;;;;5003944;28;20026;-75
2022/06/16 00:25:38;;;;;;;3.75;2.55;;;;;;;;;;5008786;28;20052;-74
2022/06/16 00:28:04;;;;;;;5.13;2.88;;;;;;;;;;5023303;28;20033;-74
2022/06/16 00:30:30;;;;;;;5.97;2.45;;;;;;;;;;5021912;28;20029;-75
2022/06/16 00:32:56;;;;;;;2.97;2.47;;;;;;;;;;5022761;28;20097;-76
2022/06/16 00:35:23;;;;;;;5.30;2.70;;;;;;;;;;5023800;28;20479;-74
2022/06/16 00:37:49;;;;;;;4.60;2.55;;;;;;;;;;5003080;28;20029;-75
2022/06/16 00:40:15;;;;;;;5.65;2.80;;;;;;;;;;5021486;28;20034;-74
2022/06/16 00:42:43;;;;;;;5.57;2.78;;;;;;;;;;5023762;28;20078;-74
2022/06/16 00:45:28;;;;;;;4.18;2.40;;;;;;;;;;5025404;28;20070;-74
2022/06/16 00:47:54;;;;;;;4.75;2.75;;;;;;;;;;5023619;28;20026;-74
2022/06/16 00:50:20;;;;;;;4.88;2.55;;;;;;;;;;5025093;28;20060;-74
2022/06/16 00:52:50;;;;;;;7.18;2.72;;;;;;;;;;5025946;28;20105;-74
2022/06/16 00:55:17;;;;;;;4.95;2.83;;;;;;;;;;5023787;28;20059;-74
2022/06/16 00:57:47;;;;;;;6.03;2.85;;;;;;;;;;5007778;28;20057;-74
2022/06/16 01:02:41;;;;;;;6.55;2.67;;;;;;;;;;5019628;28;20510;-75
2022/06/16 01:05:07;;;;;;;4.43;2.80;;;;;;;;;;5024086;28;20044;-74
2022/06/16 01:07:37;;;;;;;4.72;2.70;;;;;;;;;;5014782;28;20034;-73
2022/06/16 01:10:04;;;;;;;4.60;2.50;;;;;;;;;;5005276;28;20085;-74
2022/06/16 01:15:46;;;;;;;5.57;2.67;;;;;;;;;;5022392;28;20052;-73
2022/06/16 01:18:21;;;;;;;3.88;2.50;;;;;;;;;;5023057;28;20033;-74
2022/06/16 01:21:06;;;;;;;4.07;2.42;;;;;;;;;;5021328;28;20018;-73
2022/06/16 01:23:51;;;;;;;3.42;2.47;;;;;;;;;;5019266;28;20558;-74
2022/06/16 01:26:17;;;;;;;5.20;2.60;;;;;;;;;;5002121;28;20041;-74
2022/06/16 01:28:46;;;;;;;7.88;2.53;;;;;;;;;;5020656;28;20033;-73
2022/06/16 01:31:16;;;;;;;4.10;2.58;;;;;;;;;;5021022;28;20109;-73
2022/06/16 01:33:54;;;;;;;5.97;2.47;;;;;;;;;;5020782;28;20034;-74
2022/06/16 01:36:36;;;;;;;3.65;2.47;;;;;;;;;;5020920;28;20049;-73
2022/06/16 01:39:15;;;;;;;5.40;2.58;;;;;;;;;;5005962;28;20033;-75
2022/06/16 01:41:54;;;;;;;6.07;2.50;;;;;;;;;;5025716;28;20033;-75
2022/06/16 01:44:24;;;;;;;6.50;2.67;;;;;;;;;;5019347;28;20496;-74
2022/06/16 01:46:55;;;;;;;8.88;2.53;;;;;;;;;;5022027;28;20025;-75
2022/06/16 01:49:33;;;;;;;12.52;3.78;;;;;;;;;;5017780;28;20038;-73
2022/06/16 01:52:02;;;;;;;6.10;2.80;;;;;;;;;;5025039;28;20025;-75
2022/06/16 01:54:31;;;;;;;5.07;2.70;;;;;;;;;;5026627;28;20045;-74
2022/06/16 01:57:10;;;;;;;5.15;2.58;;;;;;;;;;5028287;28;20040;-74
2022/06/16 01:59:44;;;;;;;3.78;2.47;;;;;;;;;;5024684;28;20045;-74
2022/06/16 02:02:13;;;;;;;4.25;2.70;;;;;;;;;;5026698;28;20026;-75
2022/06/16 02:04:44;;;;;;;3.63;2.53;;;;;;;;;;5024002;28;20022;-73
2022/06/16 02:07:17;;;;;;;4.50;2.50;;;;;;;;;;5009976;28;20037;-73
2022/06/16 02:09:47;;;;;;;6.55;2.90;;;;;;;;;;5005761;28;20085;-73
2022/06/16 02:15:09;;;;;;;5.07;2.70;;;;;;;;;;5024898;28;20541;-74
2022/06/16 02:17:37;;;;;;;3.10;2.45;;;;;;;;;;5017898;28;20479;-73
2022/06/16 02:20:06;;;;;;;7.55;2.60;;;;;;;;;;5000888;28;20025;-72
2022/06/16 02:22:33;;;;;;;4.55;2.50;;;;;;;;;;5004844;28;20033;-74
2022/06/16 02:24:59;;;;;;;3.92;2.42;;;;;;;;;;5025054;28;20110;-72
2022/06/16 02:27:25;;;;;;;6.57;2.63;;;;;;;;;;5021830;28;20160;-73
2022/06/16 02:29:51;;;;;;;3.90;2.40;;;;;;;;;;5025847;28;20022;-75
2022/06/16 02:32:30;;;;;;;3.75;2.60;;;;;;;;;;5019271;28;20033;-74
2022/06/16 02:34:57;;;;;;;2.65;2.28;;;;;;;;;;5018687;28;20491;-74
2022/06/16 02:37:25;;;;;;;4.47;2.45;;;;;;;;;;5024335;28;20411;-74
2022/06/16 02:40:19;;;;;;;7.10;2.50;;;;;;;;;;5025047;28;20037;-74
2022/06/16 02:42:51;;;;;;;10.35;2.75;;;;;;;;;;5012470;28;20033;-75
2022/06/16 02:45:36;;;;;;;11.93;2.50;;;;;;;;;;5014090;28;20037;-73
2022/06/16 02:48:11;;;;;;;13.20;2.80;;;;;;;;;;5024586;28;20547;-74
2022/06/16 02:50:37;;;;;;;6.00;2.28;;;;;;;;;;5004352;28;20423;-74
2022/06/16 02:53:32;;;;;;;4.22;2.30;;;;;;;;;;5011399;28;20034;-74
2022/06/16 02:56:08;;;;;;;4.25;2.30;;;;;;;;;;5022002;28;20467;-74
2022/06/16 02:58:36;;;;;;;3.95;2.28;;;;;;;;;;5022209;28;20022;-74
2022/06/16 03:01:02;;;;;;;7.75;2.42;;;;;;;;;;5024257;28;20036;-73
2022/06/16 03:03:30;;;;;;;5.88;2.30;;;;;;;;;;5025683;28;20028;-75
2022/06/16 03:05:58;;;;;;;7.15;2.42;;;;;;;;;;5022845;28;20034;-74
2022/06/16 03:08:26;;;;;;;3.63;2.22;;;;;;;;;;5022603;28;20082;-76
2022/06/16 03:10:52;;;;;;;6.38;2.20;;;;;;;;;;5023375;28;20479;-75
2022/06/16 03:13:23;;;;;;;2.72;2.25;;;;;;;;;;5021335;28;20025;-73
2022/06/16 03:15:50;;;;;;;5.38;2.40;;;;;;;;;;5022313;28;20030;-73
2022/06/16 03:18:17;;;;;;;4.70;2.47;;;;;;;;;;5022429;28;20053;-73
2022/06/16 03:20:43;;;;;;;4.72;2.65;;;;;;;;;;5023283;28;20080;-74
2022/06/16 03:23:09;;;;;;;3.45;2.38;;;;;;;;;;5022613;28;20030;-74
2022/06/16 03:25:36;;;;;;;5.28;2.47;;;;;;;;;;5017256;28;20029;-74
2022/06/16 03:28:02;;;;;;;6.32;2.53;;;;;;;;;;5018735;28;20026;-74
2022/06/16 03:30:28;;;;;;;4.18;2.42;;;;;;;;;;5018477;28;20037;-73
2022/06/16 03:32:54;;;;;;;3.25;2.45;;;;;;;;;;5007437;28;20038;-76
2022/06/16 03:35:21;;;;;;;3.65;2.22;;;;;;;;;;5002231;28;20045;-74
2022/06/16 03:37:47;;;;;;;4.30;2.30;;;;;;;;;;5008709;28;20117;-75
2022/06/16 03:40:13;;;;;;;6.60;2.80;;;;;;;;;;5005491;28;20034;-76
2022/06/16 03:42:43;;;;;;;15.57;3.35;;;;;;;;;;5006106;28;20054;-76
2022/06/16 03:45:09;;;;;;;7.47;2.63;;;;;;;;;;5012531;28;20022;-74
2022/06/16 03:47:35;;;;;;;10.25;2.90;;;;;;;;;;5011302;28;20033;-74
2022/06/16 03:50:01;;;;;;;7.00;2.58;;;;;;;;;;5006168;28;20065;-77
2022/06/16 03:52:27;;;;;;;6.28;2.45;;;;;;;;;;5003232;28;20034;-75
2022/06/16 03:54:53;;;;;;;5.60;2.40;;;;;;;;;;5008174;28;20033;-74
2022/06/16 03:57:20;;;;;;;10.65;2.72;;;;;;;;;;5018973;28;20420;-74
2022/06/16 03:59:49;;;;;;;6.22;2.30;;;;;;;;;;5018637;28;20026;-76
2022/06/16 04:02:15;;;;;;;6.50;2.40;;;;;;;;;;5013199;28;20029;-76
2022/06/16 04:04:41;;;;;;;9.73;2.63;;;;;;;;;;5026587;28;20022;-75
2022/06/16 04:07:10;;;;;;;4.50;2.40;;;;;;;;;;5021044;28;20050;-75
2022/06/16 04:09:37;;;;;;;5.30;2.40;;;;;;;;;;5022600;28;20026;-76
2022/06/16 04:12:04;;;;;;;4.32;2.58;;;;;;;;;;5022184;28;20064;-76
2022/06/16 04:14:32;;;;;;;6.30;2.60;;;;;;;;;;5017164;28;20078;-75
2022/06/16 04:16:59;;;;;;;6.55;2.80;;;;;;;;;;5018318;28;20081;-76
2022/06/16 04:19:25;;;;;;;7.68;2.72;;;;;;;;;;5021978;28;20494;-75
2022/06/16 04:21:56;;;;;;;8.27;2.75;;;;;;;;;;5027633;28;20049;-75
2022/06/16 04:24:24;;;;;;;9.10;3.20;;;;;;;;;;5005964;28;20022;-75
2022/06/16 04:26:59;;;;;;;12.13;3.22;;;;;;;;;;5019284;28;20050;-75
2022/06/16 04:29:25;;;;;;;16.50;3.50;;;;;;;;;;5019423;28;20513;-76
2022/06/16 04:31:51;;;;;;;9.75;3.08;;;;;;;;;;5021933;28;20026;-76
2022/06/16 04:34:17;;;;;;;7.35;2.60;;;;;;;;;;5019313;28;20121;-75
2022/06/16 04:36:43;;;;;;;7.32;2.63;;;;;;;;;;5023096;28;20036;-76
2022/06/16 04:39:11;;;;;;;6.28;2.70;;;;;;;;;;5020305;28;20030;-77
2022/06/16 04:41:37;;;;;;;6.82;2.78;;;;;;;;;;5002056;28;20026;-76
2022/06/16 04:44:03;;;;;;;9.93;2.90;;;;;;;;;;5020358;28;20030;-77
2022/06/16 04:46:31;;;;;;;11.00;2.90;;;;;;;;;;5015290;28;20050;-77
2022/06/16 04:48:58;;;;;;;10.80;3.22;;;;;;;;;;5017168;28;20121;-74
2022/06/16 04:51:24;;;;;;;6.32;3.00;;;;;;;;;;5018180;28;20044;-74
2022/06/16 04:53:50;;;;;;;9.60;2.80;;;;;;;;;;5009408;28;20030;-77
2022/06/16 04:56:16;;;;;;;9.90;3.13;;;;;;;;;;5012420;28;20033;-79
2022/06/16 04:58:42;;;;;;;10.48;2.90;;;;;;;;;;5011061;28;20079;-75
2022/06/16 05:01:08;;;;;;;8.93;2.70;;;;;;;;;;5014695;28;20097;-75
2022/06/16 05:03:37;;;;;;;6.03;2.75;;;;;;;;;;5016840;28;20037;-74
2022/06/16 05:06:04;;;;;;;11.77;3.50;;;;;;;;;;4991614;28;20602;-85
2022/06/16 05:08:30;;;;;;;13.13;4.90;;;;;;;;;;5009668;28;20040;-84
2022/06/16 05:10:56;;;;;;;17.27;6.47;;;;;;;;;;5008470;28;20022;-74
2022/06/16 05:13:22;;;;;;;7.45;3.17;;;;;;;;;;5012122;28;20129;-73
2022/06/16 05:15:48;;;;;;;15.82;4.50;;;;;;;;;;5008754;28;20034;-74
2022/06/16 05:18:14;;;;;;;13.02;3.75;;;;;;;;;;5005907;28;20033;-77
2022/06/16 05:20:41;;;;;;;9.98;4.13;;;;;;;;;;5021148;28;20117;-75
2022/06/16 05:23:09;;;;;;;14.00;3.90;;;;;;;;;;5012847;28;20027;-80
2022/06/16 05:25:35;;;;;;;7.25;3.67;;;;;;;;;;5007753;28;20558;-75
2022/06/16 05:28:01;;;;;;;9.23;3.75;;;;;;;;;;5006327;28;20030;-82
2022/06/16 05:30:32;;;;;;;11.77;3.40;;;;;;;;;;5026064;28;20028;-69
2022/06/16 05:32:58;;;;;;;11.68;4.18;;;;;;;;;;4995514;28;20034;-74
2022/06/16 05:35:24;;;;;;;13.18;4.00;;;;;;;;;;5005897;28;20399;-72
2022/06/16 05:37:50;;;;;;;19.98;4.68;;;;;;;;;;5005482;28;20048;-80
2022/06/16 05:40:17;;;;;;;7.32;2.97;;;;;;;;;;5014899;28;20037;-72
2022/06/16 05:42:43;;;;;;;11.73;3.50;;;;;;;;;;5013206;28;20593;-71
2022/06/16 05:45:10;;;;;;;18.75;3.83;;;;;;;;;;4994662;28;20038;-70
2022/06/16 05:47:37;;;;;;;10.45;3.63;;;;;;;;;;4990328;28;20053;-69
2022/06/16 05:50:04;;;;;;;12.07;2.95;;;;;;;;;;5009109;28;20034;-70
2022/06/16 05:52:30;;;;;;;9.10;3.58;;;;;;;;;;5014866;28;20463;-70
2022/06/16 05:54:56;;;;;;;13.23;5.15;;;;;;;;;;5016053;28;20125;-74
2022/06/16 05:57:23;;;;;;;15.88;4.60;;;;;;;;;;5011195;28;20018;-70
2022/06/16 05:59:49;;;;;;;11.25;3.80;;;;;;;;;;4993419;28;20057;-72
2022/06/16 06:02:17;;;;;;;15.32;3.65;;;;;;;;;;5016481;28;20108;-76
2022/06/16 06:04:43;;;;;;;13.10;3.67;;;;;;;;;;5015577;28;20061;-75
2022/06/16 06:07:10;;;;;;;12.80;3.72;;;;;;;;;;5008347;28;20037;-74
2022/06/16 06:18:24;;;;;;;7.18;2.78;;;;;;;;;;4907908;29;20056;-75
2022/06/16 06:20:51;;;;;;;9.10;2.83;;;;;;;;;;4918795;29;20040;-76
2022/06/16 06:23:19;;;;;;;6.95;2.70;;;;;;;;;;4905001;29;20029;-77
2022/06/16 06:25:45;;;;;;;11.57;4.30;;;;;;;;;;4907773;29;20204;-75
2022/06/16 06:28:12;;;;;;;11.20;2.53;;;;;;;;;;4912333;29;20567;-75
2022/06/16 06:30:39;;;;;;;4.82;2.50;;;;;;;;;;4912801;29;20056;-75
2022/06/16 06:33:05;;;;;;;7.43;2.83;;;;;;;;;;4914719;29;20036;-80
2022/06/16 06:35:31;;;;;;;7.85;2.83;;;;;;;;;;4914061;29;20047;-79
2022/06/16 06:37:58;;;;;;;11.93;3.45;;;;;;;;;;4910410;29;20611;-72
2022/06/16 06:40:28;;;;;;;8.40;2.80;;;;;;;;;;4915946;29;20047;-74
2022/06/16 06:42:55;;;;;;;13.65;3.15;;;;;;;;;;4914192;29;20032;-74
2022/06/16 06:45:21;;;;;;;18.67;4.28;;;;;;;;;;4912441;29;20040;-72
2022/06/16 06:47:47;;;;;;;4.00;2.17;;;;;;;;;;4915761;29;20533;-73
2022/06/16 06:50:19;;;;;;;102.43;7.50;;;;;;;;;;4899470;29;20080;-73
2022/06/16 06:52:45;;;;;;;6.75;2.58;;;;;;;;;;4928103;28;20039;-73
2022/06/16 06:55:11;;;;;;;9.35;2.42;;;;;;;;;;5010996;28;20381;-74
2022/06/16 06:57:37;;;;;;;10.13;2.50;;;;;;;;;;5008473;28;20033;-81
2022/06/16 07:00:04;;;;;;;6.55;2.60;;;;;;;;;;5013657;28;20040;-69
2022/06/16 07:02:30;;;;;;;4.55;2.13;;;;;;;;;;5011765;28;20022;-76
2022/06/16 07:04:56;;;;;;;4.05;2.40;;;;;;;;;;4997373;28;20025;-78
2022/06/16 07:07:24;;;;;;;4.85;2.35;;;;;;;;;;5010452;28;20426;-77
2022/06/16 07:09:50;;;;;;;7.53;2.67;;;;;;;;;;5014670;28;20033;-72
2022/06/16 07:12:16;;;;;;;22.73;3.08;;;;;;;;;;5018597;28;20026;-71
2022/06/16 07:14:44;;;;;;;10.50;2.50;;;;;;;;;;4996538;28;20438;-72
2022/06/16 07:17:10;;;;;;;5.28;2.30;;;;;;;;;;4996795;28;20413;-70
2022/06/16 07:19:39;;;;;;;6.53;2.65;;;;;;;;;;5013984;28;20026;-75
2022/06/16 07:22:06;;;;;;;3.85;2.10;;;;;;;;;;4997388;28;20075;-77
2022/06/16 07:24:32;;;;;;;9.10;2.45;;;;;;;;;;5010918;28;20030;-78
2022/06/16 07:26:59;;;;;;;6.97;2.30;;;;;;;;;;5013792;28;20065;-89
2022/06/16 07:29:25;;;;;;;9.63;2.20;;;;;;;;;;4996389;28;20053;-74
2022/06/16 07:31:51;;;;;;;7.78;2.35;;;;;;;;;;4996397;28;20411;-78
2022/06/16 07:34:17;;;;;;;23.88;3.55;;;;;;;;;;4997241;28;20038;-78
2022/06/16 07:36:43;;;;;;;7.53;2.33;;;;;;;;;;5019582;28;20025;-73
2022/06/16 07:39:10;;;;;;;6.35;2.35;;;;;;;;;;5018819;28;20174;-71
2022/06/16 07:41:36;;;;;;;4.95;2.28;;;;;;;;;;5010089;28;20018;-72
2022/06/16 07:44:06;;;;;;;10.90;3.28;;;;;;;;;;5018623;28;20163;-78
2022/06/16 07:46:33;;;;;;;4.32;2.20;;;;;;;;;;5001715;28;20479;-75
2022/06/16 07:48:59;;;;;;;52.65;5.15;;;;;;;;;;5006966;28;20550;-79
2022/06/16 07:51:25;;;;;;;4.93;2.38;;;;;;;;;;4991549;28;20077;-71
2022/06/16 07:53:51;;;;;;;5.72;2.55;;;;;;;;;;5013232;28;20088;-72
2022/06/16 07:56:17;;;;;;;6.03;2.40;;;;;;;;;;5011519;28;20042;-71
2022/06/16 07:58:44;;;;;;;7.15;2.60;;;;;;;;;;5012186;28;20022;-74
2022/06/16 08:01:11;;;;;;;8.43;2.63;;;;;;;;;;5011387;28;20427;-76
2022/06/16 08:03:37;;;;;;;4.93;2.50;;;;;;;;;;5020512;28;20034;-73
2022/06/16 08:06:08;;;;;;;4.70;2.35;;;;;;;;;;5014524;28;20021;-77
2022/06/16 08:08:34;;;;;;;7.88;2.50;;;;;;;;;;5010952;28;20022;-73
2022/06/16 08:11:00;;;;;;;3.40;2.40;;;;;;;;;;4999476;28;20105;-72
2022/06/16 08:13:27;;;;;;;8.32;2.40;;;;;;;;;;5010575;28;20025;-76
2022/06/16 08:15:54;;;;;;;7.50;2.60;;;;;;;;;;5011530;28;20038;-79
2022/06/16 08:18:25;;;;;;;5.82;2.17;;;;;;;;;;4989468;28;20115;-76
2022/06/16 08:20:52;;;;;;;8.80;2.40;;;;;;;;;;5017928;28;20434;-85
2022/06/16 08:23:19;;;;;;;7.53;2.25;;;;;;;;;;4994193;28;20446;-77
2022/06/16 08:25:47;;;;;;;4.75;2.38;;;;;;;;;;5013755;28;20096;-77
2022/06/16 08:28:14;;;;;;;4.38;2.42;;;;;;;;;;4999895;28;20438;-80
2022/06/16 08:30:44;;;;;;;3.05;2.20;;;;;;;;;;5009417;28;20119;-78
2022/06/16 08:33:13;;;;;;;7.90;2.60;;;;;;;;;;4997528;28;20057;-78
2022/06/16 08:35:40;;;;;;;5.03;2.20;;;;;;;;;;4997841;28;20030;-76
2022/06/16 08:38:06;;;;;;;8.32;2.42;;;;;;;;;;4994507;28;20026;-84
2022/06/16 08:40:34;;;;;;;7.45;2.30;;;;;;;;;;5000569;28;20029;-77
2022/06/16 08:43:04;;;;;;;22.70;3.25;;;;;;;;;;5018809;28;20125;-76
2022/06/16 08:45:42;;;;;;;5.28;2.33;;;;;;;;;;5014420;28;20030;-75
2022/06/16 08:48:08;;;;;;;3.88;2.17;;;;;;;;;;5010657;28;20030;-78
2022/06/16 08:51:03;;;;;;;9.30;2.72;;;;;;;;;;4996025;28;20034;-79
2022/06/16 08:53:49;;;;;;;6.78;2.40;;;;;;;;;;4912949;28;20044;-80
2022/06/16 08:56:17;;;;;;;7.28;2.55;;;;;;;;;;4912151;29;20086;-78
2022/06/16 08:59:02;;;;;;;14.63;3.80;;;;;;;;;;4913990;29;20036;-81
2022/06/16 09:01:35;;;;;;;11.32;3.15;;;;;;;;;;4912897;29;20490;-74
2022/06/16 09:04:04;;;;;;;8.75;2.38;;;;;;;;;;4912175;29;20044;-81
2022/06/16 09:06:30;;;;;;;16.85;3.55;;;;;;;;;;4911536;29;20036;-77
2022/06/16 09:09:02;;;;;;;3.53;2.10;;;;;;;;;;4915165;29;20032;-78
2022/06/16 09:11:34;;;;;;;3.60;1.90;;;;;;;;;;4910895;29;20032;-75
2022/06/16 09:14:00;;;;;;;10.10;2.45;;;;;;;;;;4906443;29;20032;-73
2022/06/16 09:16:56;;;;;;;6.40;2.47;;;;;;;;;;4921989;29;20193;-76
2022/06/16 09:19:34;;;;;;;5.63;2.38;;;;;;;;;;4889807;29;20108;-79
2022/06/16 09:22:19;;;;;;;10.23;2.65;;;;;;;;;;4895277;29;20041;-82
2022/06/16 09:24:47;;;;;;;10.38;2.65;;;;;;;;;;4889446;29;20074;-76
2022/06/16 09:27:36;;;;;;;6.50;2.08;;;;;;;;;;4896477;29;20063;-75
2022/06/16 09:30:02;;;;;;;11.05;2.65;;;;;;;;;;4932249;28;20039;-76
2022/06/16 09:32:37;;;;;;;11.27;2.88;;;;;;;;;;4970994;28;20507;-75
2022/06/16 09:35:09;;;;;;;6.80;2.50;;;;;;;;;;4978526;28;20433;-74
2022/06/16 09:37:47;;;;;;;11.63;2.90;;;;;;;;;;4972633;28;20039;-75
2022/06/16 09:40:13;;;;;;;7.30;2.42;;;;;;;;;;4971735;28;20030;-80
2022/06/16 09:42:44;;;;;;;7.70;2.20;;;;;;;;;;4974562;28;20050;-76
2022/06/16 09:45:14;;;;;;;5.85;2.22;;;;;;;;;;4967822;28;20054;-83
2022/06/16 09:48:02;;;;;;;6.70;2.97;;;;;;;;;;4970319;28;20054;-78
2022/06/16 09:50:37;;;;;;;4.72;2.10;;;;;;;;;;4968740;28;20042;-80
2022/06/16 09:53:12;;;;;;;5.38;2.13;;;;;;;;;;4968872;28;20503;-77
2022/06/16 09:55:38;;;;;;;3.88;2.10;;;;;;;;;;4965503;28;20531;-84
2022/06/16 09:58:10;;;;;;;3.08;2.10;;;;;;;;;;4992209;28;20046;-83
2022/06/16 10:00:36;;;;;;;9.07;2.60;;;;;;;;;;5010515;28;20030;-82
2022/06/16 10:03:15;;;;;;;8.23;2.40;;;;;;;;;;5012823;28;20058;-84
2022/06/16 10:05:41;;;;;;;8.70;3.75;;;;;;;;;;5000592;28;20044;-72
2022/06/16 10:08:13;;;;;;;8.85;2.50;;;;;;;;;;5015573;28;20033;-84
2022/06/16 10:10:56;;;;;;;6.15;2.85;;;;;;;;;;5021196;28;20076;-74
2022/06/16 10:13:31;;;;;;;3.75;2.20;;;;;;;;;;5016602;28;20189;-76
2022/06/16 10:16:00;;;;;;;9.02;2.67;;;;;;;;;;4998366;28;20053;-76
2022/06/16 10:18:27;;;;;;;3.95;2.40;;;;;;;;;;5012187;28;20024;-82
2022/06/16 10:20:53;;;;;;;5.28;2.13;;;;;;;;;;4994760;28;20615;-81
2022/06/16 10:23:26;;;;;;;7.45;2.60;;;;;;;;;;5012242;28;20029;-85
2022/06/16 10:25:54;;;;;;;6.15;2.17;;;;;;;;;;4996190;28;20133;-82
2022/06/16 10:28:30;;;;;;;18.52;2.70;;;;;;;;;;4998383;28;20036;-79
2022/06/16 10:31:00;;;;;;;5.43;2.40;;;;;;;;;;4987323;28;20030;-81
2022/06/16 10:33:27;;;;;;;6.55;2.47;;;;;;;;;;4992834;28;20048;-85
2022/06/16 10:35:55;;;;;;;3.40;2.20;;;;;;;;;;5016097;28;21563;-84
2022/06/16 10:38:28;;;;;;;7.00;2.25;;;;;;;;;;5000848;28;20041;-80
2022/06/16 10:40:55;;;;;;;;;;;;;;;;;;5017900;28;20029;-84
2022/06/16 10:43:22;;;;;;;8.10;2.60;;;;;;;;;;5013603;28;20367;-76
2022/06/16 10:45:56;;;;;;;5.40;2.10;;;;;;;;;;5016049;28;20053;-77
2022/06/16 10:48:28;;;;;;;5.70;2.30;;;;;;;;;;5006124;28;20033;-78
2022/06/16 10:51:14;;;;;;;9.17;2.80;;;;;;;;;;5012814;28;20030;-78
2022/06/16 10:53:42;;;;;;;4.43;2.28;;;;;;;;;;4995502;28;20026;-76
2022/06/16 10:56:11;;;;;;;7.38;2.42;;;;;;;;;;5011285;28;20115;-81
2022/06/16 10:58:46;;;;;;;5.75;2.20;;;;;;;;;;5005124;28;20026;-83
2022/06/16 11:01:18;;;;;;;6.50;2.60;;;;;;;;;;5011588;28;20034;-79
2022/06/16 11:03:46;;;;;;;4.18;2.50;;;;;;;;;;4996953;28;20401;-80
2022/06/16 11:06:14;;;;;;;5.15;2.50;;;;;;;;;;4995416;28;20025;-78
2022/06/16 11:08:46;;;;;;;20.55;3.40;;;;;;;;;;5021530;28;20024;-74
2022/06/16 11:11:16;;;;;;;9.77;3.75;;;;;;;;;;5004245;28;20060;-77
2022/06/16 11:13:50;;;;;;;4.43;2.50;;;;;;;;;;5009459;28;20021;-70
2022/06/16 11:16:27;;;;;;;9.75;2.88;;;;;;;;;;5015414;28;20033;-70
2022/06/16 11:18:58;;;;;;;4.68;2.58;;;;;;;;;;5011568;28;20026;-71
2022/06/16 11:21:29;;;;;;;4.63;2.90;;;;;;;;;;4986130;28;20030;-69
2022/06/16 11:23:57;;;;;;;9.07;2.47;;;;;;;;;;5023804;28;20095;-76
2022/06/16 11:26:28;;;;;;;4.47;2.25;;;;;;;;;;5012998;28;20041;-77
2022/06/16 11:29:01;;;;;;;3.47;2.20;;;;;;;;;;5012543;28;20041;-77
2022/06/16 11:31:44;;;;;;;5.03;2.33;;;;;;;;;;4993726;28;20033;-78
2022/06/16 11:34:10;;;;;;;;;;;;;;;;;;5009806;28;20119;-75
2022/06/16 11:36:36;;;;;;;7.55;2.70;;;;;;;;;;4992958;28;20389;-75
2022/06/16 11:39:07;;;;;;;8.63;2.70;;;;;;;;;;5013008;28;20532;-86
2022/06/16 11:41:33;;;;;;;5.80;2.58;;;;;;;;;;4997466;28;20022;-78
2022/06/16 11:44:04;;;;;;;5.72;2.30;;;;;;;;;;4997416;28;20034;-74
2022/06/16 11:46:43;;;;;;;3.85;2.28;;;;;;;;;;4991417;28;20045;-78
2022/06/16 11:49:15;;;;;;;4.07;2.30;;;;;;;;;;4994222;28;20475;-74
2022/06/16 11:51:41;;;;;;;4.93;2.30;;;;;;;;;;5013680;28;20022;-74
2022/06/16 11:54:21;;;;;;;7.88;2.53;;;;;;;;;;5016251;28;20029;-83
2022/06/16 11:56:47;;;;;;;4.70;2.60;;;;;;;;;;5011812;28;20060;-77
2022/06/16 11:59:16;;;;;;;6.88;2.42;;;;;;;;;;4989597;28;20468;-79
2022/06/16 12:01:46;;;;;;;8.38;2.63;;;;;;;;;;4988794;28;20029;-75
2022/06/16 12:04:30;;;;;;;20.80;3.28;;;;;;;;;;5011509;28;20029;-76
2022/06/16 12:07:15;;;;;;;6.90;2.38;;;;;;;;;;5007392;28;21600;-73
2022/06/16 12:09:55;;;;;;;9.23;2.85;;;;;;;;;;5012482;28;20019;-73
2022/06/16 12:12:21;;;;;;;14.90;3.03;;;;;;;;;;5010953;28;20030;-73
2022/06/16 12:14:47;;;;;;;3.72;2.30;;;;;;;;;;5011784;28;20030;-73
2022/06/16 12:17:13;;;;;;;5.05;2.20;;;;;;;;;;5014005;28;20030;-73
2022/06/16 12:19:52;;;;;;;7.95;2.50;;;;;;;;;;4993937;28;20067;-77
2022/06/16 12:22:22;;;;;;;4.65;2.30;;;;;;;;;;4995394;28;20121;-87
2022/06/16 12:24:48;;;;;;;6.50;2.53;;;;;;;;;;5009617;28;20026;-74
2022/06/16 12:27:35;;;;;;;6.65;2.53;;;;;;;;;;5008577;28;20073;-75
2022/06/16 12:30:23;;;;;;;5.47;2.70;;;;;;;;;;4995334;28;20045;-82
2022/06/16 12:32:55;;;;;;;5.65;2.40;;;;;;;;;;5003064;28;20024;-79
2022/06/16 12:35:21;;;;;;;4.68;2.45;;;;;;;;;;4991974;28;20064;-77
2022/06/16 12:37:57;;;;;;;8.35;2.70;;;;;;;;;;4994644;28;20022;-77
2022/06/16 12:40:27;;;;;;;7.32;2.70;;;;;;;;;;5008413;28;20079;-74
2022/06/16 12:43:00;;;;;;;5.80;2.42;;;;;;;;;;4991651;28;20052;-77
2022/06/16 12:45:29;;;;;;;9.50;2.92;;;;;;;;;;4991061;28;20037;-77
2022/06/16 12:47:57;;;;;;;5.20;2.42;;;;;;;;;;4991989;28;20522;-77
2022/06/16 12:50:27;;;;;;;5.10;2.55;;;;;;;;;;4992411;28;20022;-79
2022/06/16 12:52:57;;;;;;;5.03;2.70;;;;;;;;;;5013723;28;20033;-77
2022/06/16 12:55:40;;;;;;;10.82;3.00;;;;;;;;;;5011385;28;20489;-81
2022/06/16 12:58:09;;;;;;;6.53;3.00;;;;;;;;;;4994692;28;20056;-82
2022/06/16 13:00:38;;;;;;;13.95;3.38;;;;;;;;;;5011778;28;20025;-71
2022/06/16 13:03:30;;;;;;;8.57;3.28;;;;;;;;;;5017866;28;20034;-74
2022/06/16 13:05:57;;;;;;;7.10;3.20;;;;;;;;;;4909269;29;20041;-74
2022/06/16 13:08:24;;;;;;;6.85;2.75;;;;;;;;;;4896318;29;20070;-82
2022/06/16 13:10:53;;;;;;;7.75;2.60;;;;;;;;;;4915630;29;20044;-79
2022/06/16 13:13:26;;;;;;;6.43;2.60;;;;;;;;;;4912824;29;20032;-85
2022/06/16 13:15:55;;;;;;;4.82;2.47;;;;;;;;;;4909088;29;20044;-80
2022/06/16 13:18:24;;;;;;;8.35;2.97;;;;;;;;;;4912029;29;20058;-79
2022/06/16 13:20:54;;;;;;;13.68;2.90;;;;;;;;;;4918646;29;20041;-72
2022/06/16 13:23:31;;;;;;;36.30;4.20;;;;;;;;;;4915355;29;20462;-72
2022/06/16 13:26:15;;;;;;;4.10;2.70;;;;;;;;;;4912790;29;20422;-72
2022/06/16 13:28:49;;;;;;;11.38;3.10;;;;;;;;;;4914180;29;20031;-75
2022/06/16 13:31:46;;;;;;;12.88;3.15;;;;;;;;;;4912018;29;20104;-76
2022/06/16 13:34:14;;;;;;;16.20;2.92;;;;;;;;;;4860022;29;20045;-72
2022/06/16 13:36:47;;;;;;;5.55;2.60;;;;;;;;;;4872623;29;20109;-74
2022/06/16 13:39:33;;;;;;;9.23;2.90;;;;;;;;;;4871740;29;20045;-76
2022/06/16 13:42:12;;;;;;;4.70;2.42;;;;;;;;;;4886141;28;20047;-73
2022/06/16 13:44:58;;;;;;;8.25;2.80;;;;;;;;;;4952854;28;20039;-82
2022/06/16 13:47:24;;;;;;;5.13;2.65;;;;;;;;;;4934050;28;20058;-83
2022/06/16 13:49:53;;;;;;;7.07;2.63;;;;;;;;;;4950103;28;20878;-82
2022/06/16 13:52:25;;;;;;;9.75;3.08;;;;;;;;;;4945955;28;20035;-79
2022/06/16 13:55:03;;;;;;;6.18;2.88;;;;;;;;;;4948585;28;20091;-71
2022/06/16 13:57:33;;;;;;;6.13;2.83;;;;;;;;;;4951496;28;20028;-69
2022/06/16 14:00:09;;;;;;;7.50;3.38;;;;;;;;;;4954206;28;20047;-90
2022/06/16 14:02:54;;;;;;;5.40;2.97;;;;;;;;;;4953860;28;20055;-77
2022/06/16 14:05:25;;;;;;;7.15;2.63;;;;;;;;;;4955584;28;20042;-71
2022/06/16 14:07:51;;;;;;;6.25;2.67;;;;;;;;;;4948490;28;20062;-80
2022/06/16 14:10:23;;;;;;;7.65;2.88;;;;;;;;;;4972134;28;20087;-73
2022/06/16 14:13:02;;;;;;;15.55;3.17;;;;;;;;;;5003902;28;20028;-77
2022/06/16 14:15:57;;;;;;;7.10;3.15;;;;;;;;;;5008948;28;20041;-73
2022/06/16 14:18:48;;;;;;;6.55;2.60;;;;;;;;;;4910443;29;20112;-84
2022/06/16 14:21:15;;;;;;;7.03;3.20;;;;;;;;;;4909474;29;20048;-74
2022/06/16 14:23:46;;;;;;;17.88;3.80;;;;;;;;;;4908201;29;20098;-74
2022/06/16 14:26:17;;;;;;;6.18;2.85;;;;;;;;;;4910799;29;20379;-74
2022/06/16 14:28:45;;;;;;;5.07;2.80;;;;;;;;;;4912569;29;20071;-73
2022/06/16 14:31:40;;;;;;;5.72;3.13;;;;;;;;;;4913541;29;20032;-74
2022/06/16 14:34:26;;;;;;;7.88;3.00;;;;;;;;;;4853948;29;20045;-73
2022/06/16 14:36:55;;;;;;;8.15;2.90;;;;;;;;;;4839258;29;20125;-75
2022/06/16 14:39:31;;;;;;;6.00;2.70;;;;;;;;;;4838159;29;20040;-73
2022/06/16 14:41:59;;;;;;;12.85;3.20;;;;;;;;;;4837747;29;20128;-71
2022/06/16 14:44:39;;;;;;;11.10;2.97;;;;;;;;;;4835386;29;20060;-73
2022/06/16 14:47:20;;;;;;;7.65;3.15;;;;;;;;;;4836095;29;20038;-73
2022/06/16 14:49:46;;;;;;;15.48;3.20;;;;;;;;;;4841466;29;20101;-72
2022/06/16 14:52:15;;;;;;;13.57;3.40;;;;;;;;;;4838821;29;20412;-72
2022/06/16 14:54:53;;;;;;;8.75;3.15;;;;;;;;;;4850462;29;20085;-73
2022/06/16 14:57:20;;;;;;;5.35;2.90;;;;;;;;;;4871136;29;20053;-74
2022/06/16 14:59:50;;;;;;;4.53;2.83;;;;;;;;;;4870969;29;20041;-74
2022/06/16 15:02:16;;;;;;;4.20;2.67;;;;;;;;;;4873814;29;20066;-73
2022/06/16 15:04:42;;;;;;;8.15;2.80;;;;;;;;;;4871310;29;20475;-72
2022/06/16 15:07:13;;;;;;;8.25;2.80;;;;;;;;;;4873821;29;20121;-76
2022/06/16 15:09:41;;;;;;;19.42;3.60;;;;;;;;;;4880815;29;20075;-74
2022/06/16 15:12:07;;;;;;;6.63;3.00;;;;;;;;;;4953438;29;20042;-74
2022/06/16 15:14:36;;;;;;;9.43;3.05;;;;;;;;;;4993195;28;20052;-71
2022/06/16 15:19:50;;;;;;;8.38;3.10;;;;;;;;;;5008422;28;20570;-75